sensor_id;sensor_type;location;lat;lon;timestamp;pressure;altitude;pressure_sealevel;temperature;humidity
36828;BME280;22766;48.042;11.192;2022-08-19T00:01:24;94687.84;;;17.41;100.00
36828;BME280;22766;48.042;11.192;2022-08-19T00:04:05;94663.16;;;17.63;100.00
36828;BME280;22766;48.042;11.192;2022-08-19T00:06:33;94663.56;;;17.80;100.00
36828;BME280;22766;48.042;11.192;2022-08-19T00:09:04;94664.94;;;17.89;100.00
36828;BME280;22766;48.042;11.192;2022-08-19T00:11:31;94664.16;;;17.68;100.00
36828;BME280;22766;48.042;11.192;2022-08-19T00:13:58;94667.22;;;17.52;100.00
36828;BME280;22766;48.042;11.192;2022-08-19T00:16:25;94662.19;;;17.51;100.00
36828;BME280;22766;48.042;11.192;2022-08-19T00:18:53;94659.16;;;17.60;100.00
36828;BME280;22766;48.042;11.192;2022-08-19T00:21:23;94660.53;;;17.76;100.00
36828;BME280;22766;48.042;11.192;2022-08-19T00:23:51;94650.09;;;17.63;100.00
36828;BME280;22766;48.042;11.192;2022-08-19T00:26:17;94641.50;;;17.62;100.00
36828;BME280;22766;48.042;11.192;2022-08-19T00:28:44;94644.50;;;17.66;100.00
36828;BME280;22766;48.042;11.192;2022-08-19T00:31:11;94646.13;;;17.54;100.00
36828;BME280;22766;48.042;11.192;2022-08-19T00:33:38;94646.50;;;17.57;100.00
36828;BME280;22766;48.042;11.192;2022-08-19T00:36:07;94646.50;;;17.57;100.00
36828;BME280;22766;48.042;11.192;2022-08-19T00:38:34;94641.69;;;17.48;100.00
36828;BME280;22766;48.042;11.192;2022-08-19T00:41:04;94638.91;;;17.49;100.00
36828;BME280;22766;48.042;11.192;2022-08-19T00:43:32;94646.09;;;17.47;100.00
36828;BME280;22766;48.042;11.192;2022-08-19T00:45:59;94651.53;;;17.39;100.00
36828;BME280;22766;48.042;11.192;2022-08-19T00:48:26;94643.69;;;17.46;100.00
36828;BME280;22766;48.042;11.192;2022-08-19T00:50:53;94629.25;;;17.50;100.00
36828;BME280;22766;48.042;11.192;2022-08-19T00:53:23;94628.25;;;17.51;100.00
36828;BME280;22766;48.042;11.192;2022-08-19T00:55:53;94627.03;;;17.40;100.00
36828;BME280;22766;48.042;11.192;2022-08-19T00:58:24;94627.03;;;17.40;100.00
36828;BME280;22766;48.042;11.192;2022-08-19T01:00:54;94642.28;;;17.43;100.00
36828;BME280;22766;48.042;11.192;2022-08-19T01:03:22;94648.28;;;17.44;100.00
36828;BME280;22766;48.042;11.192;2022-08-19T01:05:50;94647.09;;;17.46;100.00
36828;BME280;22766;48.042;11.192;2022-08-19T01:08:18;94641.91;;;17.53;100.00
36828;BME280;22766;48.042;11.192;2022-08-19T01:10:54;94625.22;;;17.54;100.00
36828;BME280;22766;48.042;11.192;2022-08-19T01:13:24;94624.25;;;17.48;100.00
36828;BME280;22766;48.042;11.192;2022-08-19T01:15:55;94609.16;;;17.44;100.00
36828;BME280;22766;48.042;11.192;2022-08-19T01:18:23;94615.81;;;17.40;100.00
36828;BME280;22766;48.042;11.192;2022-08-19T01:20:54;94613.19;;;17.40;100.00
36828;BME280;22766;48.042;11.192;2022-08-19T01:23:22;94618.78;;;17.37;100.00
36828;BME280;22766;48.042;11.192;2022-08-19T01:26:19;94637.88;;;17.37;100.00
36828;BME280;22766;48.042;11.192;2022-08-19T01:28:48;94634.25;;;17.58;100.00
36828;BME280;22766;48.042;11.192;2022-08-19T01:31:21;94634.47;;;17.50;100.00
36828;BME280;22766;48.042;11.192;2022-08-19T01:33:55;94638.28;;;17.41;100.00
36828;BME280;22766;48.042;11.192;2022-08-19T01:36:26;94641.28;;;17.44;100.00
36828;BME280;22766;48.042;11.192;2022-08-19T01:38:54;94643.50;;;17.60;100.00
36828;BME280;22766;48.042;11.192;2022-08-19T01:41:22;94636.06;;;17.57;100.00
36828;BME280;22766;48.042;11.192;2022-08-19T01:43:51;94654.38;;;17.51;100.00
36828;BME280;22766;48.042;11.192;2022-08-19T01:46:38;94674.63;;;17.49;100.00
36828;BME280;22766;48.042;11.192;2022-08-19T01:49:06;94678.03;;;17.43;100.00
36828;BME280;22766;48.042;11.192;2022-08-19T01:51:35;94688.50;;;17.49;100.00
36828;BME280;22766;48.042;11.192;2022-08-19T01:54:07;94685.25;;;17.41;100.00
36828;BME280;22766;48.042;11.192;2022-08-19T01:56:34;94675.41;;;17.36;100.00
36828;BME280;22766;48.042;11.192;2022-08-19T01:59:05;94668.97;;;17.39;100.00
36828;BME280;22766;48.042;11.192;2022-08-19T02:01:35;94668.38;;;17.37;100.00
36828;BME280;22766;48.042;11.192;2022-08-19T02:04:02;94655.34;;;17.37;100.00
36828;BME280;22766;48.042;11.192;2022-08-19T02:06:29;94651.91;;;17.36;100.00
36828;BME280;22766;48.042;11.192;2022-08-19T02:08:56;94645.50;;;17.39;100.00
36828;BME280;22766;48.042;11.192;2022-08-19T02:11:41;94656.72;;;17.33;100.00
36828;BME280;22766;48.042;11.192;2022-08-19T02:14:08;94660.56;;;17.37;100.00
36828;BME280;22766;48.042;11.192;2022-08-19T02:16:35;94676.00;;;17.38;100.00
36828;BME280;22766;48.042;11.192;2022-08-19T02:19:03;94670.19;;;17.30;100.00
36828;BME280;22766;48.042;11.192;2022-08-19T02:21:30;94670.38;;;17.35;100.00
36828;BME280;22766;48.042;11.192;2022-08-19T02:23:57;94678.41;;;17.33;100.00
36828;BME280;22766;48.042;11.192;2022-08-19T02:26:24;94682.44;;;17.29;100.00
36828;BME280;22766;48.042;11.192;2022-08-19T02:28:53;94685.22;;;17.34;100.00
36828;BME280;22766;48.042;11.192;2022-08-19T02:31:24;94680.63;;;17.36;100.00
36828;BME280;22766;48.042;11.192;2022-08-19T02:33:52;94674.41;;;17.37;100.00
36828;BME280;22766;48.042;11.192;2022-08-19T02:36:23;94673.19;;;17.33;100.00
36828;BME280;22766;48.042;11.192;2022-08-19T02:38:50;94671.81;;;17.37;100.00
36828;BME280;22766;48.042;11.192;2022-08-19T02:41:27;94653.34;;;17.45;100.00
36828;BME280;22766;48.042;11.192;2022-08-19T02:43:56;94640.47;;;17.44;100.00
36828;BME280;22766;48.042;11.192;2022-08-19T02:46:48;94633.66;;;17.36;100.00
36828;BME280;22766;48.042;11.192;2022-08-19T02:49:18;94617.56;;;17.46;100.00
36828;BME280;22766;48.042;11.192;2022-08-19T02:51:45;94616.22;;;17.30;100.00
36828;BME280;22766;48.042;11.192;2022-08-19T02:54:13;94603.56;;;17.27;100.00
36828;BME280;22766;48.042;11.192;2022-08-19T02:56:42;94601.75;;;17.28;100.00
36828;BME280;22766;48.042;11.192;2022-08-19T02:59:09;94591.31;;;17.21;100.00
36828;BME280;22766;48.042;11.192;2022-08-19T03:01:40;94586.91;;;17.22;100.00
36828;BME280;22766;48.042;11.192;2022-08-19T03:04:10;94586.31;;;17.20;100.00
36828;BME280;22766;48.042;11.192;2022-08-19T03:06:39;94585.09;;;17.16;100.00
36828;BME280;22766;48.042;11.192;2022-08-19T03:09:07;94588.31;;;17.24;100.00
36828;BME280;22766;48.042;11.192;2022-08-19T03:11:34;94581.25;;;17.25;100.00
36828;BME280;22766;48.042;11.192;2022-08-19T03:14:03;94587.50;;;17.24;100.00
36828;BME280;22766;48.042;11.192;2022-08-19T03:16:33;94607.16;;;17.33;100.00
36828;BME280;22766;48.042;11.192;2022-08-19T03:19:02;94613.78;;;17.29;100.00
36828;BME280;22766;48.042;11.192;2022-08-19T03:21:31;94617.78;;;17.25;100.00
36828;BME280;22766;48.042;11.192;2022-08-19T03:24:00;94629.03;;;17.25;100.00
36828;BME280;22766;48.042;11.192;2022-08-19T03:26:29;94625.81;;;17.23;100.00
36828;BME280;22766;48.042;11.192;2022-08-19T03:28:57;94622.22;;;17.31;100.00
36828;BME280;22766;48.042;11.192;2022-08-19T03:31:31;94622.03;;;17.32;100.00
36828;BME280;22766;48.042;11.192;2022-08-19T03:34:21;94630.66;;;17.26;100.00
36828;BME280;22766;48.042;11.192;2022-08-19T03:36:49;94608.97;;;17.19;100.00
36828;BME280;22766;48.042;11.192;2022-08-19T03:39:15;94606.16;;;17.27;100.00
36828;BME280;22766;48.042;11.192;2022-08-19T03:41:44;94596.09;;;17.44;100.00
36828;BME280;22766;48.042;11.192;2022-08-19T03:44:15;94599.13;;;17.34;100.00
36828;BME280;22766;48.042;11.192;2022-08-19T03:47:04;94596.13;;;17.37;100.00
36828;BME280;22766;48.042;11.192;2022-08-19T03:49:32;94599.94;;;17.41;100.00
36828;BME280;22766;48.042;11.192;2022-08-19T03:52:03;94594.31;;;17.31;100.00
36828;BME280;22766;48.042;11.192;2022-08-19T03:54:34;94595.72;;;17.27;100.00
36828;BME280;22766;48.042;11.192;2022-08-19T03:57:02;94599.16;;;17.28;100.00
36828;BME280;22766;48.042;11.192;2022-08-19T03:59:31;94598.72;;;17.31;100.00
36828;BME280;22766;48.042;11.192;2022-08-19T04:02:02;94601.72;;;17.34;100.00
36828;BME280;22766;48.042;11.192;2022-08-19T04:04:29;94617.00;;;17.37;100.00
36828;BME280;22766;48.042;11.192;2022-08-19T04:06:57;94614.38;;;17.37;100.00
36828;BME280;22766;48.042;11.192;2022-08-19T04:09:25;94616.19;;;17.37;100.00
36828;BME280;22766;48.042;11.192;2022-08-19T04:11:55;94603.75;;;17.39;100.00
36828;BME280;22766;48.042;11.192;2022-08-19T04:14:25;94602.75;;;17.33;100.00
36828;BME280;22766;48.042;11.192;2022-08-19T04:16:54;94603.94;;;17.31;100.00
36828;BME280;22766;48.042;11.192;2022-08-19T04:19:21;94604.34;;;17.34;100.00
36828;BME280;22766;48.042;11.192;2022-08-19T04:21:52;94609.16;;;17.44;100.00
36828;BME280;22766;48.042;11.192;2022-08-19T04:24:21;94609.16;;;17.44;100.00
36828;BME280;22766;48.042;11.192;2022-08-19T04:26:48;94613.78;;;17.48;100.00
36828;BME280;22766;48.042;11.192;2022-08-19T04:29:21;94623.03;;;17.51;100.00
36828;BME280;22766;48.042;11.192;2022-08-19T04:31:52;94639.69;;;17.56;100.00
36828;BME280;22766;48.042;11.192;2022-08-19T04:34:23;94651.75;;;17.51;100.00
36828;BME280;22766;48.042;11.192;2022-08-19T04:36:52;94655.56;;;17.48;100.00
36828;BME280;22766;48.042;11.192;2022-08-19T04:39:23;94660.34;;;17.45;100.00
36828;BME280;22766;48.042;11.192;2022-08-19T04:42:10;94663.78;;;17.45;100.00
36828;BME280;22766;48.042;11.192;2022-08-19T04:44:56;94657.53;;;17.46;100.00
36828;BME280;22766;48.042;11.192;2022-08-19T04:47:25;94655.13;;;17.45;100.00
36828;BME280;22766;48.042;11.192;2022-08-19T04:50:12;94658.72;;;17.44;100.00
36828;BME280;22766;48.042;11.192;2022-08-19T04:52:40;94662.56;;;17.41;100.00
36828;BME280;22766;48.042;11.192;2022-08-19T04:55:10;94664.38;;;17.47;100.00
36828;BME280;22766;48.042;11.192;2022-08-19T04:57:38;94677.25;;;17.49;100.00
36828;BME280;22766;48.042;11.192;2022-08-19T05:00:08;94675.44;;;17.49;100.00
36828;BME280;22766;48.042;11.192;2022-08-19T05:02:36;94668.19;;;17.51;100.00
36828;BME280;22766;48.042;11.192;2022-08-19T05:05:04;94664.00;;;17.50;100.00
36828;BME280;22766;48.042;11.192;2022-08-19T05:07:31;94676.63;;;17.47;100.00
36828;BME280;22766;48.042;11.192;2022-08-19T05:09:57;94684.84;;;17.37;100.00
36828;BME280;22766;48.042;11.192;2022-08-19T05:12:25;94674.00;;;17.47;100.00
36828;BME280;22766;48.042;11.192;2022-08-19T05:14:54;94672.63;;;17.51;100.00
36828;BME280;22766;48.042;11.192;2022-08-19T05:17:25;94670.81;;;17.51;100.00
36828;BME280;22766;48.042;11.192;2022-08-19T05:19:55;94672.22;;;17.60;100.00
36828;BME280;22766;48.042;11.192;2022-08-19T05:22:43;94671.63;;;17.58;100.00
36828;BME280;22766;48.042;11.192;2022-08-19T05:25:13;94672.41;;;17.59;100.00
36828;BME280;22766;48.042;11.192;2022-08-19T05:27:41;94672.22;;;17.60;100.00
36828;BME280;22766;48.042;11.192;2022-08-19T05:30:10;94674.03;;;17.60;100.00
36828;BME280;22766;48.042;11.192;2022-08-19T05:32:38;94672.59;;;17.57;100.00
36828;BME280;22766;48.042;11.192;2022-08-19T05:35:06;94671.41;;;17.53;100.00
36828;BME280;22766;48.042;11.192;2022-08-19T05:37:33;94666.41;;;17.58;100.00
36828;BME280;22766;48.042;11.192;2022-08-19T05:40:00;94665.81;;;17.56;100.00
36828;BME280;22766;48.042;11.192;2022-08-19T05:42:28;94665.41;;;17.53;100.00
36828;BME280;22766;48.042;11.192;2022-08-19T05:44:55;94649.75;;;17.53;100.00
36828;BME280;22766;48.042;11.192;2022-08-19T05:47:23;94643.50;;;17.60;100.00
36828;BME280;22766;48.042;11.192;2022-08-19T05:49:50;94635.06;;;17.58;100.00
36828;BME280;22766;48.042;11.192;2022-08-19T05:52:18;94629.22;;;17.63;100.00
36828;BME280;22766;48.042;11.192;2022-08-19T05:54:53;94627.44;;;17.63;100.00
36828;BME280;22766;48.042;11.192;2022-08-19T05:57:23;94631.84;;;17.69;100.00
36828;BME280;22766;48.042;11.192;2022-08-19T05:59:51;94635.84;;;17.72;100.00
36828;BME280;22766;48.042;11.192;2022-08-19T06:02:28;94635.22;;;17.77;100.00
36828;BME280;22766;48.042;11.192;2022-08-19T06:04:57;94636.22;;;17.82;100.00
36828;BME280;22766;48.042;11.192;2022-08-19T06:07:24;94637.19;;;17.88;100.00
36828;BME280;22766;48.042;11.192;2022-08-19T06:09:51;94649.28;;;17.89;100.00
36828;BME280;22766;48.042;11.192;2022-08-19T06:12:30;94656.13;;;17.83;100.00
36828;BME280;22766;48.042;11.192;2022-08-19T06:15:01;94663.34;;;17.74;100.00
36828;BME280;22766;48.042;11.192;2022-08-19T06:17:29;94670.19;;;17.76;100.00
36828;BME280;22766;48.042;11.192;2022-08-19T06:19:58;94670.97;;;17.89;100.00
36828;BME280;22766;48.042;11.192;2022-08-19T06:22:26;94674.19;;;17.85;100.00
36828;BME280;22766;48.042;11.192;2022-08-19T06:24:54;94681.63;;;17.74;100.00
36828;BME280;22766;48.042;11.192;2022-08-19T06:27:22;94682.81;;;17.85;100.00
36828;BME280;22766;48.042;11.192;2022-08-19T06:29:49;94686.44;;;17.84;100.00
36828;BME280;22766;48.042;11.192;2022-08-19T06:32:16;94686.00;;;17.94;100.00
36828;BME280;22766;48.042;11.192;2022-08-19T06:34:45;94689.22;;;17.96;100.00
36828;BME280;22766;48.042;11.192;2022-08-19T06:37:13;94690.66;;;17.85;100.00
36828;BME280;22766;48.042;11.192;2022-08-19T06:39:43;94698.50;;;17.85;100.00
36828;BME280;22766;48.042;11.192;2022-08-19T06:42:11;94694.06;;;17.99;100.00
36828;BME280;22766;48.042;11.192;2022-08-19T06:44:42;94683.63;;;17.92;100.00
36828;BME280;22766;48.042;11.192;2022-08-19T06:47:18;94679.97;;;17.93;100.00
36828;BME280;22766;48.042;11.192;2022-08-19T06:49:52;94675.56;;;18.00;100.00
36828;BME280;22766;48.042;11.192;2022-08-19T06:52:19;94670.72;;;18.04;100.00
36828;BME280;22766;48.042;11.192;2022-08-19T06:54:46;94662.50;;;17.94;100.00
36828;BME280;22766;48.042;11.192;2022-08-19T06:57:23;94662.72;;;17.92;100.00
36828;BME280;22766;48.042;11.192;2022-08-19T06:59:51;94663.09;;;18.02;100.00
36828;BME280;22766;48.042;11.192;2022-08-19T07:02:18;94662.88;;;18.10;100.00
36828;BME280;22766;48.042;11.192;2022-08-19T07:04:46;94655.25;;;18.02;100.00
36828;BME280;22766;48.042;11.192;2022-08-19T07:07:19;94658.03;;;18.14;100.00
36828;BME280;22766;48.042;11.192;2022-08-19T07:09:49;94661.25;;;18.16;100.00
36828;BME280;22766;48.042;11.192;2022-08-19T07:12:27;94653.81;;;18.13;100.00
36828;BME280;22766;48.042;11.192;2022-08-19T07:14:57;94663.66;;;18.17;100.00
36828;BME280;22766;48.042;11.192;2022-08-19T07:17:25;94650.75;;;18.22;100.00
36828;BME280;22766;48.042;11.192;2022-08-19T07:19:53;94652.38;;;18.23;100.00
36828;BME280;22766;48.042;11.192;2022-08-19T07:22:21;94656.97;;;18.28;100.00
36828;BME280;22766;48.042;11.192;2022-08-19T07:24:51;94659.13;;;18.37;100.00
36828;BME280;22766;48.042;11.192;2022-08-19T07:27:19;94651.69;;;18.41;100.00
36828;BME280;22766;48.042;11.192;2022-08-19T07:29:52;94660.16;;;18.36;100.00
36828;BME280;22766;48.042;11.192;2022-08-19T07:32:23;94659.38;;;18.42;100.00
36828;BME280;22766;48.042;11.192;2022-08-19T07:34:53;94666.59;;;18.34;100.00
36828;BME280;22766;48.042;11.192;2022-08-19T07:37:20;94654.34;;;18.34;100.00
36828;BME280;22766;48.042;11.192;2022-08-19T07:39:47;94662.19;;;18.28;100.00
36828;BME280;22766;48.042;11.192;2022-08-19T07:42:14;94658.97;;;18.26;100.00
36828;BME280;22766;48.042;11.192;2022-08-19T07:44:41;94648.19;;;18.16;100.00
36828;BME280;22766;48.042;11.192;2022-08-19T07:47:17;94652.56;;;18.22;100.00
36828;BME280;22766;48.042;11.192;2022-08-19T07:50:09;94648.59;;;18.13;100.00
36828;BME280;22766;48.042;11.192;2022-08-19T07:52:38;94655.59;;;18.19;100.00
36828;BME280;22766;48.042;11.192;2022-08-19T07:55:08;94651.75;;;18.28;100.00
36828;BME280;22766;48.042;11.192;2022-08-19T07:57:57;94648.09;;;18.42;100.00
36828;BME280;22766;48.042;11.192;2022-08-19T08:00:24;94645.66;;;18.40;100.00
36828;BME280;22766;48.042;11.192;2022-08-19T08:02:52;94641.03;;;18.49;100.00
36828;BME280;22766;48.042;11.192;2022-08-19T08:05:22;94637.72;;;18.67;100.00
36828;BME280;22766;48.042;11.192;2022-08-19T08:08:11;94638.16;;;18.88;100.00
36828;BME280;22766;48.042;11.192;2022-08-19T08:10:58;94642.53;;;19.01;100.00
36828;BME280;22766;48.042;11.192;2022-08-19T08:13:28;94648.50;;;19.08;100.00
36828;BME280;22766;48.042;11.192;2022-08-19T08:15:56;94651.94;;;19.08;100.00
36828;BME280;22766;48.042;11.192;2022-08-19T08:18:24;94661.44;;;19.03;100.00
36828;BME280;22766;48.042;11.192;2022-08-19T08:20:55;94669.25;;;18.78;100.00
36828;BME280;22766;48.042;11.192;2022-08-19T08:23:22;94672.69;;;18.72;100.00
36828;BME280;22766;48.042;11.192;2022-08-19T08:25:54;94668.88;;;18.68;100.00
36828;BME280;22766;48.042;11.192;2022-08-19T08:28:24;94674.19;;;18.55;100.00
36828;BME280;22766;48.042;11.192;2022-08-19T08:30:56;94689.88;;;18.55;100.00
36828;BME280;22766;48.042;11.192;2022-08-19T08:33:26;94685.09;;;18.45;100.00
36828;BME280;22766;48.042;11.192;2022-08-19T08:36:07;94680.81;;;18.57;100.00
36828;BME280;22766;48.042;11.192;2022-08-19T08:38:34;94684.84;;;18.53;100.00
36828;BME280;22766;48.042;11.192;2022-08-19T08:44:00;94687.53;;;18.27;100.00
36828;BME280;22766;48.042;11.192;2022-08-19T08:51:54;94697.63;;;18.17;100.00
36828;BME280;22766;48.042;11.192;2022-08-19T08:54:39;94693.44;;;18.03;100.00
36828;BME280;22766;48.042;11.192;2022-08-19T08:57:44;94700.44;;;18.03;100.00
36828;BME280;22766;48.042;11.192;2022-08-19T09:02:57;94704.91;;;17.96;100.00
36828;BME280;22766;48.042;11.192;2022-08-19T09:05:42;94701.91;;;17.92;100.00
36828;BME280;22766;48.042;11.192;2022-08-19T09:11:10;94693.03;;;17.93;100.00
36828;BME280;22766;48.042;11.192;2022-08-19T09:17:17;94698.50;;;17.85;100.00
36828;BME280;22766;48.042;11.192;2022-08-19T09:19:58;94695.25;;;17.90;100.00
36828;BME280;22766;48.042;11.192;2022-08-19T09:22:38;94699.06;;;18.00;100.00
36828;BME280;22766;48.042;11.192;2022-08-19T09:25:07;94707.50;;;18.02;100.00
36828;BME280;22766;48.042;11.192;2022-08-19T09:27:36;94698.44;;;18.18;100.00
36828;BME280;22766;48.042;11.192;2022-08-19T09:30:19;94705.00;;;18.33;100.00
36828;BME280;22766;48.042;11.192;2022-08-19T09:32:48;94710.22;;;18.33;100.00
36828;BME280;22766;48.042;11.192;2022-08-19T09:35:22;94712.88;;;18.27;100.00
36828;BME280;22766;48.042;11.192;2022-08-19T09:37:51;94710.22;;;18.33;100.00
36828;BME280;22766;48.042;11.192;2022-08-19T09:40:29;94710.81;;;18.35;100.00
36828;BME280;22766;48.042;11.192;2022-08-19T09:43:03;94706.75;;;18.52;100.00
36828;BME280;22766;48.042;11.192;2022-08-19T09:45:36;94717.00;;;18.54;100.00
36828;BME280;22766;48.042;11.192;2022-08-19T09:48:04;94711.00;;;18.53;100.00
36828;BME280;22766;48.042;11.192;2022-08-19T09:50:32;94707.03;;;18.44;100.00
36828;BME280;22766;48.042;11.192;2022-08-19T09:53:17;94708.78;;;18.50;100.00
36828;BME280;22766;48.042;11.192;2022-08-19T09:55:44;94717.66;;;18.36;100.00
36828;BME280;22766;48.042;11.192;2022-08-19T09:58:11;94719.47;;;18.36;100.00
36828;BME280;22766;48.042;11.192;2022-08-19T10:00:40;94725.91;;;18.33;100.00
36828;BME280;22766;48.042;11.192;2022-08-19T10:03:07;94720.31;;;18.23;100.00
36828;BME280;22766;48.042;11.192;2022-08-19T10:05:34;94719.47;;;18.29;100.00
36828;BME280;22766;48.042;11.192;2022-08-19T10:08:30;94716.78;;;18.62;100.00
36828;BME280;22766;48.042;11.192;2022-08-19T10:10:59;94719.44;;;18.55;100.00
36828;BME280;22766;48.042;11.192;2022-08-19T10:13:46;94713.03;;;18.45;100.00
36828;BME280;22766;48.042;11.192;2022-08-19T10:16:18;94721.69;;;18.45;100.00
36828;BME280;22766;48.042;11.192;2022-08-19T10:18:46;94721.91;;;18.44;100.00
36828;BME280;22766;48.042;11.192;2022-08-19T10:21:21;94721.47;;;18.47;100.00
36828;BME280;22766;48.042;11.192;2022-08-19T10:23:53;94718.84;;;18.47;100.00
36828;BME280;22766;48.042;11.192;2022-08-19T10:26:24;94716.78;;;18.62;100.00
36828;BME280;22766;48.042;11.192;2022-08-19T10:28:52;94719.59;;;18.67;100.00
36828;BME280;22766;48.042;11.192;2022-08-19T10:31:27;94710.09;;;18.73;100.00
36828;BME280;22766;48.042;11.192;2022-08-19T10:34:15;94705.22;;;18.83;100.00
36828;BME280;22766;48.042;11.192;2022-08-19T10:36:53;94708.75;;;19.01;100.00
36828;BME280;22766;48.042;11.192;2022-08-19T10:39:27;94708.19;;;19.24;100.00
36828;BME280;22766;48.042;11.192;2022-08-19T10:41:57;94704.09;;;19.66;100.00
36828;BME280;22766;48.042;11.192;2022-08-19T10:44:25;94703.84;;;19.92;100.00
36828;BME280;22766;48.042;11.192;2022-08-19T10:46:58;94705.50;;;19.86;100.00
36828;BME280;22766;48.042;11.192;2022-08-19T10:49:25;94710.53;;;19.88;100.00
36828;BME280;22766;48.042;11.192;2022-08-19T10:51:54;94712.78;;;20.02;100.00
36828;BME280;22766;48.042;11.192;2022-08-19T10:54:46;94703.50;;;19.82;100.00
36828;BME280;22766;48.042;11.192;2022-08-19T10:57:34;94693.81;;;19.89;100.00
36828;BME280;22766;48.042;11.192;2022-08-19T11:00:21;94696.03;;;19.85;100.00
36828;BME280;22766;48.042;11.192;2022-08-19T11:02:50;94695.03;;;19.86;100.00
36828;BME280;22766;48.042;11.192;2022-08-19T11:05:18;94702.34;;;19.78;100.00
36828;BME280;22766;48.042;11.192;2022-08-19T11:07:51;94694.88;;;19.56;100.00
36828;BME280;22766;48.042;11.192;2022-08-19T11:10:19;94704.38;;;19.51;100.00
36828;BME280;22766;48.042;11.192;2022-08-19T11:12:48;94697.34;;;19.51;100.00
36828;BME280;22766;48.042;11.192;2022-08-19T11:15:15;94693.28;;;19.55;100.00
36828;BME280;22766;48.042;11.192;2022-08-19T11:17:42;94692.69;;;19.53;100.00
36828;BME280;22766;48.042;11.192;2022-08-19T11:20:14;94697.91;;;19.78;100.00
36828;BME280;22766;48.042;11.192;2022-08-19T11:22:41;94698.72;;;20.21;100.00
36828;BME280;22766;48.042;11.192;2022-08-19T11:25:09;94697.69;;;20.40;100.00
36828;BME280;22766;48.042;11.192;2022-08-19T11:27:39;94694.44;;;20.45;100.00
36828;BME280;22766;48.042;11.192;2022-08-19T11:30:10;94692.03;;;20.43;100.00
36828;BME280;22766;48.042;11.192;2022-08-19T11:32:40;94694.34;;;20.33;100.00
36828;BME280;22766;48.042;11.192;2022-08-19T11:35:14;94701.47;;;20.63;100.00
36828;BME280;22766;48.042;11.192;2022-08-19T11:37:42;94700.69;;;20.62;100.00
36828;BME280;22766;48.042;11.192;2022-08-19T11:40:09;94707.84;;;20.55;100.00
36828;BME280;22766;48.042;11.192;2022-08-19T11:42:36;94705.56;;;20.59;100.00
36828;BME280;22766;48.042;11.192;2022-08-19T11:45:27;94702.50;;;20.62;100.00
36828;BME280;22766;48.042;11.192;2022-08-19T11:47:54;94706.28;;;20.66;100.00
36828;BME280;22766;48.042;11.192;2022-08-19T11:50:24;94701.63;;;20.68;100.00
36828;BME280;22766;48.042;11.192;2022-08-19T11:52:54;94699.44;;;20.65;100.00
36828;BME280;22766;48.042;11.192;2022-08-19T11:55:21;94699.09;;;20.43;100.00
36828;BME280;22766;48.042;11.192;2022-08-19T11:57:49;94705.03;;;20.68;100.00
36828;BME280;22766;48.042;11.192;2022-08-19T12:00:17;94711.22;;;20.74;100.00
36828;BME280;22766;48.042;11.192;2022-08-19T12:02:44;94705.47;;;20.83;100.00
36828;BME280;22766;48.042;11.192;2022-08-19T12:05:11;94714.34;;;20.82;100.00
36828;BME280;22766;48.042;11.192;2022-08-19T12:07:39;94713.91;;;20.67;100.00
36828;BME280;22766;48.042;11.192;2022-08-19T12:10:10;94713.38;;;20.47;100.00
36828;BME280;22766;48.042;11.192;2022-08-19T12:12:37;94703.69;;;20.48;100.00
36828;BME280;22766;48.042;11.192;2022-08-19T12:15:12;94712.84;;;20.57;100.00
36828;BME280;22766;48.042;11.192;2022-08-19T12:17:42;94719.03;;;20.62;100.00
36828;BME280;22766;48.042;11.192;2022-08-19T12:20:10;94717.50;;;20.55;100.00
36828;BME280;22766;48.042;11.192;2022-08-19T12:22:37;94730.25;;;20.69;100.00
36828;BME280;22766;48.042;11.192;2022-08-19T12:25:05;94736.13;;;20.83;100.00
36828;BME280;22766;48.042;11.192;2022-08-19T12:27:32;94732.28;;;20.85;100.00
36828;BME280;22766;48.042;11.192;2022-08-19T12:30:09;94731.38;;;21.09;100.00
36828;BME280;22766;48.042;11.192;2022-08-19T12:32:37;94738.81;;;20.94;100.00
36828;BME280;22766;48.042;11.192;2022-08-19T12:35:06;94742.78;;;20.85;100.00
36828;BME280;22766;48.042;11.192;2022-08-19T12:37:33;94735.25;;;20.71;100.00
36828;BME280;22766;48.042;11.192;2022-08-19T12:40:00;94739.94;;;20.51;100.00
36828;BME280;22766;48.042;11.192;2022-08-19T12:42:30;94744.91;;;20.40;100.00
36828;BME280;22766;48.042;11.192;2022-08-19T12:44:57;94744.69;;;20.60;100.00
36828;BME280;22766;48.042;11.192;2022-08-19T12:47:23;94739.59;;;20.47;100.00
36828;BME280;22766;48.042;11.192;2022-08-19T12:49:52;94738.91;;;20.52;100.00
36828;BME280;22766;48.042;11.192;2022-08-19T12:52:23;94743.66;;;20.61;100.00
36828;BME280;22766;48.042;11.192;2022-08-19T12:54:51;94742.28;;;20.59;100.00
36828;BME280;22766;48.042;11.192;2022-08-19T12:57:26;94753.06;;;20.51;100.00
36828;BME280;22766;48.042;11.192;2022-08-19T13:00:00;94749.91;;;20.24;100.00
36828;BME280;22766;48.042;11.192;2022-08-19T13:02:31;94752.91;;;20.27;100.00
36828;BME280;22766;48.042;11.192;2022-08-19T13:05:05;94756.34;;;20.03;100.00
36828;BME280;22766;48.042;11.192;2022-08-19T13:07:35;94764.59;;;19.82;100.00
36828;BME280;22766;48.042;11.192;2022-08-19T13:10:02;94768.75;;;19.65;100.00
36828;BME280;22766;48.042;11.192;2022-08-19T13:12:29;94757.78;;;19.75;100.00
36828;BME280;22766;48.042;11.192;2022-08-19T13:14:56;94760.41;;;19.50;100.00
36828;BME280;22766;48.042;11.192;2022-08-19T13:17:24;94754.25;;;19.63;100.00